createdAt,value
2023-05-25T00:02:16.312Z,17.90
2023-05-25T00:04:48.750Z,17.86
2023-05-25T00:07:19.032Z,17.83
2023-05-25T00:09:51.672Z,17.82
2023-05-25T00:12:21.023Z,17.78
2023-05-25T00:14:50.374Z,17.73
2023-05-25T00:17:19.547Z,17.72
2023-05-25T00:19:48.937Z,17.72
2023-05-25T00:22:20.567Z,17.69
2023-05-25T00:24:50.937Z,17.66
2023-05-25T00:27:19.734Z,17.65
2023-05-25T00:29:56.166Z,17.61
2023-05-25T00:32:26.186Z,17.54
2023-05-25T00:34:55.898Z,17.50
2023-05-25T00:37:26.011Z,17.48
2023-05-25T00:39:54.957Z,17.51
2023-05-25T00:42:24.945Z,17.54
2023-05-25T00:44:54.813Z,17.56
2023-05-25T00:47:25.544Z,17.53
2023-05-25T00:49:54.836Z,17.51
2023-05-25T00:52:26.073Z,17.43
2023-05-25T00:54:55.476Z,17.33
2023-05-25T00:57:26.226Z,17.23
2023-05-25T00:59:55.355Z,17.15
2023-05-25T01:02:26.316Z,17.10
2023-05-25T01:04:58.999Z,17.02
2023-05-25T01:07:30.014Z,17.00
2023-05-25T01:10:02.019Z,17.01
2023-05-25T01:12:32.881Z,17.02
2023-05-25T01:15:03.874Z,17.02
2023-05-25T01:17:37.399Z,17.06
2023-05-25T01:20:11.307Z,17.09
2023-05-25T01:23:13.597Z,17.11
2023-05-25T01:25:50.569Z,17.15
2023-05-25T01:28:31.499Z,17.18
2023-05-25T01:31:00.540Z,17.16
2023-05-25T01:33:30.236Z,17.19
2023-05-25T01:36:00.024Z,17.24
2023-05-25T01:38:29.670Z,17.27
2023-05-25T01:40:59.493Z,17.24
2023-05-25T01:43:29.033Z,17.25
2023-05-25T01:46:06.922Z,17.25
2023-05-25T01:49:17.978Z,17.22
2023-05-25T01:51:58.980Z,17.23
2023-05-25T01:54:33.115Z,17.21
2023-05-25T01:57:02.617Z,17.19
2023-05-25T01:59:31.996Z,17.21
2023-05-25T02:02:01.769Z,17.21
2023-05-25T02:04:31.686Z,17.17
2023-05-25T02:07:00.866Z,17.11
2023-05-25T02:09:29.788Z,17.07
2023-05-25T02:12:01.173Z,17.05
2023-05-25T02:14:30.974Z,17.01
2023-05-25T02:17:02.408Z,16.99
2023-05-25T02:19:32.235Z,16.94
2023-05-25T02:22:01.243Z,16.91
2023-05-25T02:24:30.585Z,16.92
2023-05-25T02:27:01.798Z,16.95
2023-05-25T02:29:32.119Z,16.98
2023-05-25T02:32:02.451Z,17.02
2023-05-25T02:34:32.702Z,17.03
2023-05-25T02:37:01.834Z,17.08
2023-05-25T02:39:31.797Z,17.08
2023-05-25T02:42:01.646Z,17.07
2023-05-25T02:44:32.267Z,17.06
2023-05-25T02:47:01.681Z,17.05
2023-05-25T02:49:31.129Z,17.04
2023-05-25T02:52:00.397Z,17.05
2023-05-25T02:54:29.555Z,17.06
2023-05-25T02:56:58.778Z,17.06
2023-05-25T02:59:30.490Z,17.04
2023-05-25T03:02:00.613Z,17.02
2023-05-25T03:04:31.986Z,17.00
2023-05-25T03:07:01.487Z,17.01
2023-05-25T03:09:31.146Z,16.97
2023-05-25T03:12:04.665Z,16.90
2023-05-25T03:14:34.730Z,16.85
2023-05-25T03:17:07.325Z,16.83
2023-05-25T03:19:37.502Z,16.86
2023-05-25T03:22:08.590Z,16.89
2023-05-25T03:24:41.543Z,16.96
2023-05-25T03:27:13.274Z,17.05
2023-05-25T03:29:42.796Z,17.11
2023-05-25T03:32:11.894Z,17.20
2023-05-25T03:34:41.710Z,17.25
2023-05-25T03:37:12.412Z,17.33
2023-05-25T03:39:42.201Z,17.41
2023-05-25T03:42:12.901Z,17.49
2023-05-25T03:44:43.384Z,17.58
2023-05-25T03:47:13.632Z,17.66
2023-05-25T03:49:42.570Z,17.72
2023-05-25T03:52:14.208Z,17.79
2023-05-25T03:54:44.079Z,17.86
2023-05-25T03:57:14.020Z,17.95
2023-05-25T03:59:44.102Z,18.02
2023-05-25T04:02:13.950Z,18.11
2023-05-25T04:04:44.007Z,18.18
2023-05-25T04:07:13.392Z,18.25
2023-05-25T04:09:42.106Z,18.29
2023-05-25T04:12:11.985Z,18.36
2023-05-25T04:14:42.811Z,18.43
2023-05-25T04:17:13.566Z,18.53
2023-05-25T04:19:43.870Z,18.63
2023-05-25T04:22:12.880Z,18.74
2023-05-25T04:24:44.016Z,18.83
2023-05-25T04:27:14.583Z,18.89
2023-05-25T04:29:44.103Z,18.93
2023-05-25T04:32:32.416Z,18.97
2023-05-25T04:35:06.824Z,19.04
2023-05-25T04:37:40.482Z,19.10
2023-05-25T04:40:13.615Z,19.17
2023-05-25T04:42:45.085Z,19.27
2023-05-25T04:45:17.739Z,19.39
2023-05-25T04:47:47.667Z,19.51
2023-05-25T04:50:17.872Z,19.62
2023-05-25T04:52:48.029Z,19.73
2023-05-25T04:55:21.104Z,19.87
2023-05-25T04:57:53.244Z,20.09
2023-05-25T05:00:23.545Z,20.38
2023-05-25T05:02:59.034Z,20.67
2023-05-25T05:05:28.369Z,20.96
2023-05-25T05:07:59.919Z,21.33
2023-05-25T05:10:29.946Z,21.67
2023-05-25T05:13:00.535Z,21.98
2023-05-25T05:15:29.543Z,22.33
2023-05-25T05:18:01.540Z,22.67
2023-05-25T05:20:32.270Z,22.98
2023-05-25T05:23:01.668Z,23.29
2023-05-25T05:25:32.314Z,23.69
2023-05-25T05:28:01.811Z,24.11
2023-05-25T05:30:33.019Z,24.46
2023-05-25T05:33:02.288Z,24.75
2023-05-25T05:35:34.594Z,24.90
2023-05-25T05:38:05.705Z,25.05
2023-05-25T05:40:37.691Z,25.15
2023-05-25T05:43:10.416Z,25.33
2023-05-25T05:45:39.625Z,25.54
2023-05-25T05:48:10.879Z,25.84
2023-05-25T05:50:42.544Z,26.12
2023-05-25T05:53:13.127Z,26.31
2023-05-25T05:55:42.480Z,26.46
2023-05-25T05:58:12.285Z,26.65
2023-05-25T06:00:41.575Z,26.65
2023-05-25T06:03:11.742Z,26.78
2023-05-25T06:05:41.979Z,26.97
2023-05-25T06:08:12.176Z,27.05
2023-05-25T06:10:42.943Z,27.19
2023-05-25T06:13:12.692Z,27.33
2023-05-25T06:15:41.664Z,27.21
2023-05-25T06:18:15.232Z,27.23
2023-05-25T06:20:44.834Z,27.30
2023-05-25T06:23:14.134Z,27.44
2023-05-25T06:25:43.396Z,27.56
2023-05-25T06:28:13.606Z,27.69
2023-05-25T06:30:42.949Z,27.86
2023-05-25T06:33:14.899Z,27.92
2023-05-25T06:35:44.200Z,28.05
2023-05-25T06:38:13.826Z,28.09
2023-05-25T06:40:45.147Z,28.13
2023-05-25T06:43:15.529Z,28.29
2023-05-25T06:45:59.758Z,28.36
2023-05-25T06:48:29.332Z,28.37
2023-05-25T06:50:59.427Z,28.44
2023-05-25T06:53:29.242Z,28.44
2023-05-25T06:55:58.053Z,28.45
2023-05-25T06:58:27.577Z,28.46
2023-05-25T07:00:56.579Z,28.53
2023-05-25T07:03:26.910Z,28.68
2023-05-25T07:05:56.113Z,28.73
2023-05-25T07:08:25.010Z,28.89
2023-05-25T07:10:55.048Z,29.13
2023-05-25T07:13:25.221Z,29.13
2023-05-25T07:15:53.926Z,29.17
2023-05-25T07:18:23.004Z,29.24
2023-05-25T07:20:53.449Z,29.43
2023-05-25T07:23:22.638Z,29.68
2023-05-25T07:25:51.396Z,29.77
2023-05-25T07:28:20.389Z,29.71
2023-05-25T07:30:49.107Z,29.73
2023-05-25T07:33:18.417Z,29.81
2023-05-25T07:35:47.627Z,29.95
2023-05-25T07:38:16.198Z,30.01
2023-05-25T07:40:46.532Z,30.00
2023-05-25T07:43:16.295Z,30.10
2023-05-25T07:45:45.228Z,30.06
2023-05-25T07:48:14.420Z,30.14
2023-05-25T07:50:43.366Z,30.35
2023-05-25T07:53:12.183Z,30.51
2023-05-25T07:55:42.005Z,30.73
2023-05-25T07:58:10.748Z,30.78
2023-05-25T08:00:39.613Z,30.75
2023-05-25T08:03:08.461Z,30.85
2023-05-25T08:05:37.773Z,31.03
2023-05-25T08:08:07.535Z,31.29
2023-05-25T08:10:37.932Z,31.39
2023-05-25T08:13:06.937Z,31.44
2023-05-25T08:15:39.017Z,31.57
2023-05-25T08:18:11.631Z,31.74
2023-05-25T08:20:40.890Z,31.84
2023-05-25T08:23:10.604Z,31.88
2023-05-25T08:25:40.980Z,31.83
2023-05-25T08:28:11.151Z,31.84
2023-05-25T08:30:41.353Z,31.92
2023-05-25T08:33:10.739Z,32.05
2023-05-25T08:35:48.527Z,32.02
2023-05-25T08:38:23.601Z,31.87
2023-05-25T08:41:06.261Z,31.83
2023-05-25T08:43:36.376Z,31.97
2023-05-25T08:46:08.071Z,32.13
2023-05-25T08:48:41.916Z,32.26
2023-05-25T08:51:10.834Z,32.38
2023-05-25T08:53:41.427Z,32.50
2023-05-25T08:56:18.911Z,32.41
2023-05-25T08:58:53.292Z,32.29
2023-05-25T09:01:22.508Z,32.22
2023-05-25T09:03:51.544Z,32.05
2023-05-25T09:06:20.541Z,31.90
2023-05-25T09:08:49.807Z,31.65
2023-05-25T09:11:27.007Z,31.46
2023-05-25T09:13:49.144Z,31.32
2023-05-25T09:16:18.426Z,31.14
2023-05-25T09:18:47.652Z,30.93
2023-05-25T09:21:17.323Z,30.70
2023-05-25T09:23:46.154Z,30.50
2023-05-25T09:26:14.823Z,30.34
2023-05-25T09:28:47.989Z,30.26
2023-05-25T09:31:19.139Z,30.17
2023-05-25T09:33:48.059Z,30.02
2023-05-25T09:36:17.397Z,29.88
2023-05-25T09:38:46.871Z,29.83
2023-05-25T09:41:17.070Z,29.79
2023-05-25T09:43:54.764Z,29.74
2023-05-25T09:46:17.514Z,29.65
2023-05-25T09:48:48.165Z,29.52
2023-05-25T09:51:17.097Z,29.39
2023-05-25T09:53:48.093Z,29.17
2023-05-25T09:56:18.043Z,29.03
2023-05-25T09:58:47.000Z,28.96
2023-05-25T10:01:16.684Z,28.90
2023-05-25T10:04:02.770Z,28.87
2023-05-25T10:06:20.555Z,28.89
2023-05-25T10:08:49.601Z,28.93
2023-05-25T10:11:21.224Z,28.96
2023-05-25T10:13:52.594Z,28.95
2023-05-25T10:16:28.000Z,28.91
2023-05-25T10:19:18.293Z,28.87
2023-05-25T10:22:01.460Z,28.81
2023-05-25T10:25:09.022Z,28.69
2023-05-25T10:27:44.694Z,28.70
2023-05-25T10:30:14.760Z,28.63
2023-05-25T10:32:45.293Z,28.65
2023-05-25T10:35:14.953Z,28.67
2023-05-25T10:37:45.154Z,28.62
2023-05-25T10:40:15.746Z,28.56
2023-05-25T10:42:46.221Z,28.54
2023-05-25T10:45:15.116Z,28.48
2023-05-25T10:47:46.051Z,28.48
2023-05-25T10:50:27.434Z,28.43
2023-05-25T10:53:02.477Z,28.42
2023-05-25T10:55:54.039Z,28.40
2023-05-25T10:58:24.108Z,28.40
2023-05-25T11:01:09.835Z,28.45
2023-05-25T11:04:13.946Z,28.50
2023-05-25T11:06:51.466Z,28.44
2023-05-25T11:09:32.947Z,28.23
2023-05-25T11:12:04.786Z,27.92
2023-05-25T11:14:36.279Z,27.63
2023-05-25T11:17:08.448Z,27.35
2023-05-25T11:19:50.386Z,27.25
2023-05-25T11:22:36.073Z,27.04
2023-05-25T11:25:37.206Z,27.04
2023-05-25T11:28:07.668Z,26.97
2023-05-25T11:30:40.280Z,26.83
2023-05-25T11:33:10.281Z,26.73
2023-05-25T11:35:40.199Z,26.68
2023-05-25T11:38:09.786Z,26.63
2023-05-25T11:40:47.368Z,26.62
2023-05-25T11:43:09.551Z,26.64
2023-05-25T11:45:39.281Z,26.64
2023-05-25T11:48:11.929Z,26.60
2023-05-25T11:50:40.849Z,26.53
2023-05-25T11:53:10.936Z,26.49
2023-05-25T11:55:43.190Z,26.45
2023-05-25T11:58:13.168Z,26.45
2023-05-25T12:00:43.114Z,26.44
2023-05-25T12:03:33.747Z,26.41
2023-05-25T12:06:09.463Z,26.38
2023-05-25T12:08:39.258Z,26.37
2023-05-25T12:11:12.011Z,26.38
2023-05-25T12:13:41.606Z,26.39
2023-05-25T12:16:10.602Z,26.39
2023-05-25T12:18:40.163Z,26.43
2023-05-25T12:21:10.383Z,26.47
2023-05-25T12:23:39.799Z,26.49
2023-05-25T12:26:13.856Z,26.50
2023-05-25T12:29:06.732Z,26.45
2023-05-25T12:31:38.584Z,26.27
2023-05-25T12:34:13.340Z,26.15
2023-05-25T12:36:54.748Z,26.16
2023-05-25T12:39:35.030Z,26.12
2023-05-25T12:42:04.870Z,26.05
2023-05-25T12:44:37.945Z,26.03
2023-05-25T12:47:17.096Z,26.01
2023-05-25T12:49:53.692Z,25.98
2023-05-25T12:52:40.024Z,26.00
2023-05-25T12:55:30.901Z,26.09
2023-05-25T12:58:05.194Z,26.16
2023-05-25T13:00:39.187Z,26.18
2023-05-25T13:03:08.733Z,26.14
2023-05-25T13:05:39.571Z,26.14
2023-05-25T13:08:09.520Z,26.14
2023-05-25T13:10:39.469Z,26.13
2023-05-25T13:13:08.874Z,26.12
2023-05-25T13:15:37.612Z,26.20
2023-05-25T13:18:07.136Z,26.31
2023-05-25T13:20:40.938Z,26.36
2023-05-25T13:23:09.982Z,26.47
2023-05-25T13:25:39.846Z,26.56
2023-05-25T13:28:09.310Z,26.55
2023-05-25T13:30:40.062Z,26.48
2023-05-25T13:33:09.288Z,26.52
2023-05-25T13:35:40.338Z,26.59
2023-05-25T13:38:10.315Z,26.61
2023-05-25T13:40:39.493Z,26.59
2023-05-25T13:43:08.312Z,26.56
2023-05-25T13:45:38.357Z,26.59
2023-05-25T13:48:07.622Z,26.58
2023-05-25T13:50:36.974Z,26.60
2023-05-25T13:53:05.823Z,26.66
2023-05-25T13:55:37.935Z,26.74
2023-05-25T13:58:07.004Z,26.74
2023-05-25T14:00:36.742Z,26.68
2023-05-25T14:03:06.821Z,26.61
2023-05-25T14:05:37.314Z,26.57
2023-05-25T14:08:08.156Z,26.59
2023-05-25T14:10:39.038Z,26.59
2023-05-25T14:13:09.663Z,26.61
2023-05-25T14:15:40.708Z,26.59
2023-05-25T14:18:10.614Z,26.49
2023-05-25T14:20:40.964Z,26.41
2023-05-25T14:23:12.748Z,26.37
2023-05-25T14:25:49.656Z,26.28
2023-05-25T14:28:20.355Z,26.29
2023-05-25T14:30:51.138Z,26.25
2023-05-25T14:33:21.273Z,26.17
2023-05-25T14:35:51.523Z,26.15
2023-05-25T14:38:20.556Z,26.22
2023-05-25T14:40:49.711Z,26.31
2023-05-25T14:43:18.480Z,26.37
2023-05-25T14:45:47.810Z,26.38
2023-05-25T14:48:19.090Z,26.34
2023-05-25T14:50:48.457Z,26.29
2023-05-25T14:53:17.670Z,26.17
2023-05-25T14:55:47.132Z,26.14
2023-05-25T14:58:18.272Z,26.10
2023-05-25T15:00:52.235Z,26.07
2023-05-25T15:03:22.464Z,26.06
2023-05-25T15:05:51.723Z,26.04
2023-05-25T15:08:22.893Z,25.96
2023-05-25T15:10:51.448Z,25.89
2023-05-25T15:13:22.483Z,25.78
2023-05-25T15:15:53.969Z,25.68
2023-05-25T15:18:23.924Z,25.64
2023-05-25T15:20:53.074Z,25.64
2023-05-25T15:23:21.789Z,25.60
2023-05-25T15:25:50.970Z,25.56
2023-05-25T15:28:20.104Z,25.50
2023-05-25T15:30:51.025Z,25.41
2023-05-25T15:33:20.417Z,25.35
2023-05-25T15:35:49.977Z,25.34
2023-05-25T15:38:19.692Z,25.33
2023-05-25T15:40:48.668Z,25.31
2023-05-25T15:43:17.611Z,25.27
2023-05-25T15:45:47.346Z,25.25
2023-05-25T15:48:19.153Z,25.18
2023-05-25T15:50:49.115Z,25.15
2023-05-25T15:53:18.512Z,25.13
2023-05-25T15:55:47.848Z,25.13
2023-05-25T16:00:57.210Z,25.08
2023-05-25T16:03:27.609Z,25.09
2023-05-25T16:05:56.757Z,25.08
2023-05-25T16:08:26.177Z,25.08
2023-05-25T16:10:55.309Z,25.09
2023-05-25T16:13:27.027Z,25.11
2023-05-25T16:15:56.845Z,25.10
2023-05-25T16:18:27.105Z,25.10
2023-05-25T16:20:57.772Z,25.08
2023-05-25T16:23:28.316Z,25.08
2023-05-25T16:25:57.466Z,25.08
2023-05-25T16:28:26.764Z,25.10
2023-05-25T16:30:56.553Z,25.11
2023-05-25T16:33:26.961Z,25.10
2023-05-25T16:35:56.202Z,25.03
2023-05-25T16:38:25.515Z,24.96
2023-05-25T16:40:54.319Z,24.88
2023-05-25T16:43:25.244Z,24.85
2023-05-25T16:45:56.161Z,24.84
2023-05-25T16:48:25.773Z,24.83
2023-05-25T16:50:56.524Z,24.84
2023-05-25T16:53:26.765Z,24.81
2023-05-25T16:55:57.073Z,24.75
2023-05-25T16:58:27.033Z,24.68
2023-05-25T17:00:56.846Z,24.65
2023-05-25T17:03:27.178Z,24.62
2023-05-25T17:05:57.656Z,24.62
2023-05-25T17:08:26.909Z,24.61
2023-05-25T17:10:56.908Z,24.62
2023-05-25T17:13:27.429Z,24.60
2023-05-25T17:15:56.740Z,24.60
2023-05-25T17:18:27.301Z,24.58
2023-05-25T17:20:57.880Z,24.58
2023-05-25T17:23:29.005Z,24.59
2023-05-25T17:25:58.201Z,24.55
2023-05-25T17:28:29.107Z,24.54
2023-05-25T17:31:00.059Z,24.52
2023-05-25T17:33:29.945Z,24.47
2023-05-25T17:36:00.642Z,24.42
2023-05-25T17:38:30.464Z,24.37
2023-05-25T17:40:59.951Z,24.34
2023-05-25T17:43:30.814Z,24.29
2023-05-25T17:46:01.491Z,24.22
2023-05-25T17:48:30.670Z,24.18
2023-05-25T17:51:00.222Z,24.15
2023-05-25T17:53:30.406Z,24.12
2023-05-25T17:56:00.055Z,24.08
2023-05-25T17:58:30.218Z,24.02
2023-05-25T18:01:00.417Z,23.97
2023-05-25T18:03:30.439Z,23.91
2023-05-25T18:05:59.872Z,23.83
2023-05-25T18:08:31.194Z,23.77
2023-05-25T18:10:59.844Z,23.69
2023-05-25T18:13:29.304Z,23.60
2023-05-25T18:15:59.017Z,23.54
2023-05-25T18:18:30.018Z,23.51
2023-05-25T18:21:00.298Z,23.49
2023-05-25T18:23:29.826Z,23.47
2023-05-25T18:26:00.717Z,23.43
2023-05-25T18:28:31.552Z,23.38
2023-05-25T18:31:00.849Z,23.33
2023-05-25T18:33:32.681Z,23.29
2023-05-25T18:36:03.787Z,23.21
2023-05-25T18:38:32.955Z,23.14
2023-05-25T18:41:02.247Z,23.05
2023-05-25T18:43:32.923Z,22.97
2023-05-25T18:46:02.488Z,22.90
2023-05-25T18:48:32.365Z,22.86
2023-05-25T18:51:02.974Z,22.83
2023-05-25T18:53:31.928Z,22.84
2023-05-25T18:56:05.303Z,22.83
2023-05-25T18:58:34.656Z,22.84
2023-05-25T19:01:05.275Z,22.82
2023-05-25T19:03:37.305Z,22.78
2023-05-25T19:06:08.094Z,22.74
2023-05-25T19:08:38.264Z,22.71
2023-05-25T19:11:08.634Z,22.68
2023-05-25T19:13:40.336Z,22.64
2023-05-25T19:16:09.548Z,22.57
2023-05-25T19:18:39.801Z,22.48
2023-05-25T19:21:09.535Z,22.41
2023-05-25T19:23:41.924Z,22.38
2023-05-25T19:26:11.112Z,22.36
2023-05-25T19:28:41.748Z,22.36
2023-05-25T19:31:11.744Z,22.32
2023-05-25T19:33:41.886Z,22.31
2023-05-25T19:36:11.803Z,22.27
2023-05-25T19:38:42.379Z,22.25
2023-05-25T19:41:13.311Z,22.25
2023-05-25T19:43:44.195Z,22.25
2023-05-25T19:46:13.825Z,22.23
2023-05-25T19:48:43.950Z,22.20
2023-05-25T19:51:13.468Z,22.18
2023-05-25T19:53:46.566Z,22.17
2023-05-25T19:56:17.485Z,22.18
2023-05-25T19:58:48.146Z,22.20
2023-05-25T20:01:17.647Z,22.22
2023-05-25T20:03:47.577Z,22.22
2023-05-25T20:06:19.278Z,22.23
2023-05-25T20:08:50.381Z,22.22
2023-05-25T20:11:20.881Z,22.19
2023-05-25T20:13:52.688Z,22.19
2023-05-25T20:16:25.010Z,22.21
2023-05-25T20:18:57.038Z,22.23
2023-05-25T20:21:28.855Z,22.25
2023-05-25T20:24:00.393Z,22.24
2023-05-25T20:26:31.709Z,22.24
2023-05-25T20:29:01.484Z,22.25
2023-05-25T20:31:31.928Z,22.24
2023-05-25T20:34:02.125Z,22.24
2023-05-25T20:36:33.485Z,22.24
2023-05-25T20:39:03.458Z,22.24
2023-05-25T20:41:33.812Z,22.23
2023-05-25T20:44:05.677Z,22.20
2023-05-25T20:46:35.829Z,22.18
2023-05-25T20:49:09.395Z,22.16
2023-05-25T20:51:39.347Z,22.16
2023-05-25T20:54:08.930Z,22.17
2023-05-25T20:56:39.068Z,22.17
2023-05-25T20:59:08.554Z,22.17
2023-05-25T21:01:37.257Z,22.14
2023-05-25T21:04:06.296Z,22.10
2023-05-25T21:06:36.981Z,22.07
2023-05-25T21:09:06.874Z,22.08
2023-05-25T21:11:38.934Z,22.07
2023-05-25T21:14:08.920Z,22.04
2023-05-25T21:16:39.997Z,22.01
2023-05-25T21:19:10.442Z,22.02
2023-05-25T21:21:41.608Z,21.99
2023-05-25T21:24:11.209Z,21.98
2023-05-25T21:26:43.680Z,21.98
2023-05-25T21:29:14.770Z,21.99
2023-05-25T21:31:46.793Z,22.01
2023-05-25T21:34:17.369Z,22.03
2023-05-25T21:36:46.924Z,22.05
2023-05-25T21:39:16.734Z,22.07
2023-05-25T21:41:46.795Z,22.08
2023-05-25T21:44:17.071Z,22.07
2023-05-25T21:46:47.751Z,22.07
2023-05-25T21:49:19.498Z,22.06
2023-05-25T21:51:50.152Z,22.06
2023-05-25T21:54:21.873Z,22.05
2023-05-25T21:56:51.775Z,22.03
2023-05-25T21:59:22.147Z,22.02
2023-05-25T22:01:51.802Z,22.02
2023-05-25T22:04:22.414Z,21.99
2023-05-25T22:06:52.981Z,21.96
2023-05-25T22:09:23.327Z,21.92
2023-05-25T22:11:53.208Z,21.90
2023-05-25T22:14:23.457Z,21.89
2023-05-25T22:16:53.298Z,21.82
2023-05-25T22:19:25.156Z,21.77
2023-05-25T22:21:55.645Z,21.71
2023-05-25T22:24:27.021Z,21.67
2023-05-25T22:26:58.459Z,21.64
2023-05-25T22:29:28.407Z,21.60
2023-05-25T22:31:58.352Z,21.57
2023-05-25T22:34:28.296Z,21.55
2023-05-25T22:36:57.917Z,21.52
2023-05-25T22:39:27.729Z,21.46
2023-05-25T22:41:57.581Z,21.42
2023-05-25T22:44:27.586Z,21.38
2023-05-25T22:46:57.546Z,21.35
2023-05-25T22:49:28.436Z,21.32
2023-05-25T22:51:58.123Z,21.28
2023-05-25T22:54:28.864Z,21.26
2023-05-25T22:56:58.504Z,21.21
2023-05-25T22:59:28.640Z,21.17
2023-05-25T23:01:59.069Z,21.11
2023-05-25T23:04:29.562Z,21.06
2023-05-25T23:06:59.509Z,21.01
2023-05-25T23:09:29.416Z,20.97
2023-05-25T23:11:59.447Z,20.94
2023-05-25T23:14:30.827Z,20.92
2023-05-25T23:17:00.586Z,20.89
2023-05-25T23:19:30.405Z,20.84
2023-05-25T23:22:00.033Z,20.80
2023-05-25T23:24:30.023Z,20.80
2023-05-25T23:27:00.151Z,20.77
2023-05-25T23:29:29.679Z,20.76
2023-05-25T23:31:59.831Z,20.75
2023-05-25T23:34:30.329Z,20.71
2023-05-25T23:37:00.843Z,20.68
2023-05-25T23:39:30.920Z,20.66
2023-05-25T23:42:01.927Z,20.62
2023-05-25T23:44:31.804Z,20.60
2023-05-25T23:47:02.037Z,20.57
2023-05-25T23:49:31.898Z,20.53
2023-05-25T23:52:01.910Z,20.47
2023-05-25T23:54:32.002Z,20.43
2023-05-25T23:57:01.905Z,20.40
2023-05-25T23:59:32.532Z,20.37
